sensor_id;sensor_type;location;lat;lon;timestamp;pressure;altitude;pressure_sealevel;temperature;humidity
37710;BME280;60223;34.854;-92.408;2023-03-03T00:01:46;99049.70;;;25.19;31.62
37710;BME280;60223;34.854;-92.408;2023-03-03T00:04:12;99043.88;;;25.32;31.19
37710;BME280;60223;34.854;-92.408;2023-03-03T00:06:36;99036.32;;;25.63;31.20
37710;BME280;60223;34.854;-92.408;2023-03-03T00:09:02;99019.26;;;25.28;31.38
37710;BME280;60223;34.854;-92.408;2023-03-03T00:11:28;99030.59;;;25.43;31.35
37710;BME280;60223;34.854;-92.408;2023-03-03T00:13:55;99023.36;;;25.46;31.32
37710;BME280;60223;34.854;-92.408;2023-03-03T00:16:22;99011.49;;;25.37;31.18
37710;BME280;60223;34.854;-92.408;2023-03-03T00:18:46;98991.20;;;25.36;31.39
37710;BME280;60223;34.854;-92.408;2023-03-03T00:21:24;98975.30;;;24.69;32.00
37710;BME280;60223;34.854;-92.408;2023-03-03T00:23:39;98989.59;;;24.42;32.80
37710;BME280;60223;34.854;-92.408;2023-03-03T00:25:58;98968.79;;;24.56;32.56
37710;BME280;60223;34.854;-92.408;2023-03-03T00:28:29;98942.62;;;24.51;32.92
37710;BME280;60223;34.854;-92.408;2023-03-03T00:30:52;98962.23;;;25.28;31.76
37710;BME280;60223;34.854;-92.408;2023-03-03T00:33:27;98967.92;;;25.58;31.35
37710;BME280;60223;34.854;-92.408;2023-03-03T00:35:43;98963.84;;;25.64;31.14
37710;BME280;60223;34.854;-92.408;2023-03-03T00:38:13;98956.09;;;25.32;31.20
37710;BME280;60223;34.854;-92.408;2023-03-03T00:40:36;98953.12;;;25.30;31.21
37710;BME280;60223;34.854;-92.408;2023-03-03T00:43:11;98931.88;;;25.14;31.41
37710;BME280;60223;34.854;-92.408;2023-03-03T00:45:30;98911.05;;;25.28;31.51
37710;BME280;60223;34.854;-92.408;2023-03-03T00:47:49;98896.72;;;24.79;32.33
37710;BME280;60223;34.854;-92.408;2023-03-03T00:50:27;98890.20;;;24.85;32.20
37710;BME280;60223;34.854;-92.408;2023-03-03T00:52:44;98873.96;;;25.31;31.54
37710;BME280;60223;34.854;-92.408;2023-03-03T00:55:09;98865.06;;;24.32;32.65
37710;BME280;60223;34.854;-92.408;2023-03-03T00:57:33;98856.43;;;24.61;32.64
37710;BME280;60223;34.854;-92.408;2023-03-03T00:59:59;98895.24;;;24.60;32.99
37710;BME280;60223;34.854;-92.408;2023-03-03T01:02:24;98904.86;;;25.31;31.81
37710;BME280;60223;34.854;-92.408;2023-03-03T01:04:53;98911.32;;;25.66;31.29
37710;BME280;60223;34.854;-92.408;2023-03-03T01:07:15;98933.97;;;25.29;31.23
37710;BME280;60223;34.854;-92.408;2023-03-03T01:09:38;98942.76;;;25.31;31.43
37710;BME280;60223;34.854;-92.408;2023-03-03T01:12:07;98915.64;;;24.82;32.28
37710;BME280;60223;34.854;-92.408;2023-03-03T01:14:32;98899.19;;;25.25;31.63
37710;BME280;60223;34.854;-92.408;2023-03-03T01:16:57;98892.60;;;25.02;31.53
37710;BME280;60223;34.854;-92.408;2023-03-03T01:19:22;98876.61;;;25.51;31.31
37710;BME280;60223;34.854;-92.408;2023-03-03T01:21:48;98839.94;;;25.14;31.63
37710;BME280;60223;34.854;-92.408;2023-03-03T01:24:13;98856.60;;;25.36;31.41
37710;BME280;60223;34.854;-92.408;2023-03-03T01:26:39;98890.59;;;25.16;31.65
37710;BME280;60223;34.854;-92.408;2023-03-03T01:29:05;98910.37;;;25.07;31.81
37710;BME280;60223;34.854;-92.408;2023-03-03T01:31:30;98920.43;;;25.55;31.35
37710;BME280;60223;34.854;-92.408;2023-03-03T01:33:56;98929.87;;;25.30;31.54
37710;BME280;60223;34.854;-92.408;2023-03-03T01:36:25;98942.66;;;25.39;31.37
37710;BME280;60223;34.854;-92.408;2023-03-03T01:38:47;98929.75;;;24.25;32.62
37710;BME280;60223;34.854;-92.408;2023-03-03T01:41:13;98921.16;;;23.36;34.07
37710;BME280;60223;34.854;-92.408;2023-03-03T01:43:43;98884.22;;;24.18;33.05
37710;BME280;60223;34.854;-92.408;2023-03-03T01:48:33;98862.65;;;24.75;32.36
37710;BME280;60223;34.854;-92.408;2023-03-03T01:50:59;98834.33;;;25.35;31.35
37710;BME280;60223;34.854;-92.408;2023-03-03T01:53:22;98817.42;;;25.29;31.17
37710;BME280;60223;34.854;-92.408;2023-03-03T01:55:49;98811.42;;;25.83;31.18
37710;BME280;60223;34.854;-92.408;2023-03-03T01:58:15;98809.26;;;25.38;31.33
37710;BME280;60223;34.854;-92.408;2023-03-03T02:00:41;98814.62;;;25.13;31.38
37710;BME280;60223;34.854;-92.408;2023-03-03T02:03:04;98836.44;;;25.09;31.80
37710;BME280;60223;34.854;-92.408;2023-03-03T02:05:30;98807.08;;;25.06;31.45
37710;BME280;60223;34.854;-92.408;2023-03-03T02:07:54;98811.66;;;25.04;31.48
37710;BME280;60223;34.854;-92.408;2023-03-03T02:10:20;98807.49;;;25.23;31.22
37710;BME280;60223;34.854;-92.408;2023-03-03T02:12:48;98788.07;;;25.58;31.12
37710;BME280;60223;34.854;-92.408;2023-03-03T02:15:19;98745.12;;;25.11;31.33
37710;BME280;60223;34.854;-92.408;2023-03-03T02:17:37;98754.09;;;25.08;31.63
37710;BME280;60223;34.854;-92.408;2023-03-03T02:20:05;98743.33;;;25.12;31.66
37710;BME280;60223;34.854;-92.408;2023-03-03T02:22:37;98736.82;;;23.61;33.94
37710;BME280;60223;34.854;-92.408;2023-03-03T02:24:58;98746.30;;;21.28;36.77
37710;BME280;60223;34.854;-92.408;2023-03-03T02:27:20;98739.00;;;22.74;34.82
37710;BME280;60223;34.854;-92.408;2023-03-03T02:29:46;98739.85;;;23.31;33.97
37710;BME280;60223;34.854;-92.408;2023-03-03T02:32:09;98751.37;;;24.28;33.13
37710;BME280;60223;34.854;-92.408;2023-03-03T02:34:44;98733.80;;;24.69;32.20
37710;BME280;60223;34.854;-92.408;2023-03-03T02:37:03;98728.08;;;25.07;31.71
37710;BME280;60223;34.854;-92.408;2023-03-03T02:39:27;98704.63;;;25.00;31.69
37710;BME280;60223;34.854;-92.408;2023-03-03T02:41:58;98708.90;;;24.92;31.82
37710;BME280;60223;34.854;-92.408;2023-03-03T02:44:22;98725.14;;;25.52;31.13
37710;BME280;60223;34.854;-92.408;2023-03-03T02:46:52;98716.77;;;25.05;31.73
37710;BME280;60223;34.854;-92.408;2023-03-03T02:49:12;98716.96;;;24.82;32.05
37710;BME280;60223;34.854;-92.408;2023-03-03T02:51:37;98704.66;;;25.22;31.48
37710;BME280;60223;34.854;-92.408;2023-03-03T02:54:02;98722.11;;;25.11;31.61
37710;BME280;60223;34.854;-92.408;2023-03-03T02:56:28;98727.41;;;25.20;31.45
37710;BME280;60223;34.854;-92.408;2023-03-03T02:58:52;98719.35;;;23.64;33.56
37710;BME280;60223;34.854;-92.408;2023-03-03T03:01:17;98692.11;;;21.54;36.20
37710;BME280;60223;34.854;-92.408;2023-03-03T03:03:44;98677.34;;;21.21;36.89
37710;BME280;60223;34.854;-92.408;2023-03-03T03:06:11;98682.18;;;22.18;35.53
37710;BME280;60223;34.854;-92.408;2023-03-03T03:08:35;98692.38;;;23.76;33.39
37710;BME280;60223;34.854;-92.408;2023-03-03T03:11:02;98690.60;;;24.91;31.99
37710;BME280;60223;34.854;-92.408;2023-03-03T03:13:27;98708.80;;;24.68;32.15
37710;BME280;60223;34.854;-92.408;2023-03-03T03:15:53;98698.72;;;25.29;31.50
37710;BME280;60223;34.854;-92.408;2023-03-03T03:18:19;98672.35;;;24.44;32.39
37710;BME280;60223;34.854;-92.408;2023-03-03T03:20:44;98661.29;;;24.45;32.46
37710;BME280;60223;34.854;-92.408;2023-03-03T03:23:09;98661.29;;;24.66;32.18
37710;BME280;60223;34.854;-92.408;2023-03-03T03:25:35;98651.16;;;25.40;31.31
37710;BME280;60223;34.854;-92.408;2023-03-03T03:28:01;98635.93;;;24.33;32.50
37710;BME280;60223;34.854;-92.408;2023-03-03T03:30:27;98629.28;;;23.73;33.28
37710;BME280;60223;34.854;-92.408;2023-03-03T03:32:52;98635.32;;;24.04;32.92
37710;BME280;60223;34.854;-92.408;2023-03-03T03:35:18;98631.66;;;23.37;33.76
37710;BME280;60223;34.854;-92.408;2023-03-03T03:37:41;98612.25;;;22.80;34.65
37710;BME280;60223;34.854;-92.408;2023-03-03T03:40:11;98593.71;;;21.74;36.47
37710;BME280;60223;34.854;-92.408;2023-03-03T03:42:35;98579.77;;;21.44;36.92
37710;BME280;60223;34.854;-92.408;2023-03-03T03:45:00;98584.19;;;21.16;37.39
37710;BME280;60223;34.854;-92.408;2023-03-03T03:47:25;98555.53;;;20.92;38.15
37710;BME280;60223;34.854;-92.408;2023-03-03T03:49:52;98558.36;;;20.87;38.21
37710;BME280;60223;34.854;-92.408;2023-03-03T03:52:18;98549.53;;;20.59;38.59
37710;BME280;60223;34.854;-92.408;2023-03-03T03:54:43;98535.55;;;20.39;38.58
37710;BME280;60223;34.854;-92.408;2023-03-03T03:57:09;98524.29;;;20.73;38.75
37710;BME280;60223;34.854;-92.408;2023-03-03T03:59:35;98523.43;;;20.25;39.26
37710;BME280;60223;34.854;-92.408;2023-03-03T04:02:00;98521.78;;;20.43;39.37
37710;BME280;60223;34.854;-92.408;2023-03-03T04:04:25;98517.62;;;20.06;39.72
37710;BME280;60223;34.854;-92.408;2023-03-03T04:06:51;98520.51;;;19.95;39.84
37710;BME280;60223;34.854;-92.408;2023-03-03T04:09:15;98508.51;;;20.27;40.19
37710;BME280;60223;34.854;-92.408;2023-03-03T04:11:43;98490.61;;;20.50;39.84
37710;BME280;60223;34.854;-92.408;2023-03-03T04:14:08;98474.81;;;19.88;40.43
37710;BME280;60223;34.854;-92.408;2023-03-03T04:16:34;98483.41;;;20.89;39.54
37710;BME280;60223;34.854;-92.408;2023-03-03T04:19:00;98490.73;;;21.76;37.93
37710;BME280;60223;34.854;-92.408;2023-03-03T04:21:24;98484.52;;;21.05;39.15
37710;BME280;60223;34.854;-92.408;2023-03-03T04:23:51;98451.54;;;21.27;38.91
37710;BME280;60223;34.854;-92.408;2023-03-03T04:26:17;98440.39;;;22.93;35.90
37710;BME280;60223;34.854;-92.408;2023-03-03T04:28:42;98440.37;;;23.23;35.03
37710;BME280;60223;34.854;-92.408;2023-03-03T04:31:08;98434.65;;;22.90;35.42
37710;BME280;60223;34.854;-92.408;2023-03-03T04:33:34;98453.89;;;24.81;33.12
37710;BME280;60223;34.854;-92.408;2023-03-03T04:35:59;98423.05;;;24.96;32.87
37710;BME280;60223;34.854;-92.408;2023-03-03T04:38:25;98405.62;;;24.75;32.78
37710;BME280;60223;34.854;-92.408;2023-03-03T04:40:51;98396.03;;;24.76;32.54
37710;BME280;60223;34.854;-92.408;2023-03-03T04:43:17;98406.56;;;24.96;32.66
37710;BME280;60223;34.854;-92.408;2023-03-03T04:45:41;98402.07;;;24.86;32.50
37710;BME280;60223;34.854;-92.408;2023-03-03T04:48:08;98399.43;;;24.80;32.50
37710;BME280;60223;34.854;-92.408;2023-03-03T04:50:33;98411.72;;;25.18;32.04
37710;BME280;60223;34.854;-92.408;2023-03-03T04:52:59;98436.57;;;24.84;32.42
37710;BME280;60223;34.854;-92.408;2023-03-03T04:55:24;98449.20;;;25.03;32.22
37710;BME280;60223;34.854;-92.408;2023-03-03T04:57:48;98435.32;;;25.16;32.07
37710;BME280;60223;34.854;-92.408;2023-03-03T05:00:17;98450.33;;;24.99;32.23
37710;BME280;60223;34.854;-92.408;2023-03-03T05:02:38;98446.71;;;25.01;32.25
37710;BME280;60223;34.854;-92.408;2023-03-03T05:05:08;98438.36;;;25.20;32.00
37710;BME280;60223;34.854;-92.408;2023-03-03T05:07:32;98444.85;;;25.12;32.07
37710;BME280;60223;34.854;-92.408;2023-03-03T05:09:58;98422.79;;;25.19;31.95
37710;BME280;60223;34.854;-92.408;2023-03-03T05:12:24;98419.78;;;25.37;31.81
37710;BME280;60223;34.854;-92.408;2023-03-03T05:14:50;98381.70;;;25.25;31.85
37710;BME280;60223;34.854;-92.408;2023-03-03T05:17:15;98421.55;;;25.50;31.54
37710;BME280;60223;34.854;-92.408;2023-03-03T05:19:40;98389.58;;;25.59;31.51
37710;BME280;60223;34.854;-92.408;2023-03-03T05:22:06;98385.24;;;25.34;31.71
37710;BME280;60223;34.854;-92.408;2023-03-03T05:24:32;98377.70;;;24.84;31.98
37710;BME280;60223;34.854;-92.408;2023-03-03T05:26:56;98300.04;;;25.56;31.73
37710;BME280;60223;34.854;-92.408;2023-03-03T05:29:23;98320.88;;;24.89;32.20
37710;BME280;60223;34.854;-92.408;2023-03-03T05:31:49;98344.67;;;25.28;31.73
37710;BME280;60223;34.854;-92.408;2023-03-03T05:34:15;98367.51;;;25.07;31.95
37710;BME280;60223;34.854;-92.408;2023-03-03T05:36:40;98288.38;;;24.94;32.07
37710;BME280;60223;34.854;-92.408;2023-03-03T05:39:03;98251.69;;;25.27;31.63
37710;BME280;60223;34.854;-92.408;2023-03-03T05:41:32;98306.58;;;25.17;31.75
37710;BME280;60223;34.854;-92.408;2023-03-03T05:43:57;98299.84;;;24.92;32.05
37710;BME280;60223;34.854;-92.408;2023-03-03T05:46:23;98283.87;;;24.93;32.00
37710;BME280;60223;34.854;-92.408;2023-03-03T05:48:47;98276.86;;;25.03;31.85
37710;BME280;60223;34.854;-92.408;2023-03-03T05:51:15;98272.59;;;25.01;31.84
37710;BME280;60223;34.854;-92.408;2023-03-03T05:53:39;98282.15;;;25.00;32.17
37710;BME280;60223;34.854;-92.408;2023-03-03T05:56:05;98294.61;;;25.10;31.76
37710;BME280;60223;34.854;-92.408;2023-03-03T05:58:31;98266.37;;;24.92;31.64
37710;BME280;60223;34.854;-92.408;2023-03-03T06:00:57;98307.67;;;23.94;32.95
37710;BME280;60223;34.854;-92.408;2023-03-03T06:03:22;98305.46;;;23.64;33.38
37710;BME280;60223;34.854;-92.408;2023-03-03T06:05:47;98293.72;;;24.22;32.64
37710;BME280;60223;34.854;-92.408;2023-03-03T06:08:13;98292.63;;;24.05;33.06
37710;BME280;60223;34.854;-92.408;2023-03-03T06:10:39;98313.48;;;23.63;33.61
37710;BME280;60223;34.854;-92.408;2023-03-03T06:13:05;98374.62;;;23.10;33.98
37710;BME280;60223;34.854;-92.408;2023-03-03T06:15:28;98422.71;;;23.48;33.49
37710;BME280;60223;34.854;-92.408;2023-03-03T06:17:56;98441.78;;;23.96;33.43
37710;BME280;60223;34.854;-92.408;2023-03-03T06:20:37;98452.72;;;23.76;33.06
37710;BME280;60223;34.854;-92.408;2023-03-03T06:22:48;98424.02;;;22.90;34.58
37710;BME280;60223;34.854;-92.408;2023-03-03T06:25:13;98453.44;;;24.22;33.10
37710;BME280;60223;34.854;-92.408;2023-03-03T06:27:39;98402.34;;;21.99;35.68
37710;BME280;60223;34.854;-92.408;2023-03-03T06:30:04;98402.77;;;20.77;37.31
37710;BME280;60223;34.854;-92.408;2023-03-03T06:32:30;98434.87;;;20.42;37.87
37710;BME280;60223;34.854;-92.408;2023-03-03T06:34:55;98351.34;;;20.75;38.12
37710;BME280;60223;34.854;-92.408;2023-03-03T06:37:21;98437.90;;;20.52;38.47
37710;BME280;60223;34.854;-92.408;2023-03-03T06:39:45;98380.08;;;20.07;38.91
37710;BME280;60223;34.854;-92.408;2023-03-03T06:42:10;98409.04;;;20.39;38.86
37710;BME280;60223;34.854;-92.408;2023-03-03T06:44:38;98381.87;;;20.21;39.39
37710;BME280;60223;34.854;-92.408;2023-03-03T06:47:04;98467.18;;;19.77;39.49
37710;BME280;60223;34.854;-92.408;2023-03-03T06:49:30;98446.86;;;19.60;39.71
37710;BME280;60223;34.854;-92.408;2023-03-03T06:51:54;98420.27;;;20.15;39.55
37710;BME280;60223;34.854;-92.408;2023-03-03T06:54:25;98389.58;;;19.86;39.86
37710;BME280;60223;34.854;-92.408;2023-03-03T06:56:47;98395.03;;;19.56;40.17
37710;BME280;60223;34.854;-92.408;2023-03-03T06:59:16;98404.84;;;19.74;40.16
37710;BME280;60223;34.854;-92.408;2023-03-03T07:01:39;98456.76;;;19.67;40.41
37710;BME280;60223;34.854;-92.408;2023-03-03T07:04:06;98447.92;;;19.52;40.36
37710;BME280;60223;34.854;-92.408;2023-03-03T07:06:29;98418.73;;;19.87;40.25
37710;BME280;60223;34.854;-92.408;2023-03-03T07:08:55;98450.00;;;19.64;40.56
37710;BME280;60223;34.854;-92.408;2023-03-03T07:11:23;98447.92;;;20.03;40.35
37710;BME280;60223;34.854;-92.408;2023-03-03T07:13:46;98418.90;;;19.89;40.46
37710;BME280;60223;34.854;-92.408;2023-03-03T07:16:15;98408.13;;;19.72;40.33
37710;BME280;60223;34.854;-92.408;2023-03-03T07:18:42;98400.59;;;19.84;40.13
37710;BME280;60223;34.854;-92.408;2023-03-03T07:21:15;98408.58;;;19.79;40.51
37710;BME280;60223;34.854;-92.408;2023-03-03T07:23:32;98434.11;;;19.62;40.43
37710;BME280;60223;34.854;-92.408;2023-03-03T07:25:55;98427.41;;;19.32;40.54
37710;BME280;60223;34.854;-92.408;2023-03-03T07:28:25;98407.98;;;19.93;40.26
37710;BME280;60223;34.854;-92.408;2023-03-03T07:30:46;98408.54;;;19.87;40.03
37710;BME280;60223;34.854;-92.408;2023-03-03T07:33:22;98392.17;;;19.65;40.32
37710;BME280;60223;34.854;-92.408;2023-03-03T07:35:41;98373.55;;;19.47;40.44
37710;BME280;60223;34.854;-92.408;2023-03-03T07:40:37;98308.56;;;19.69;40.41
37710;BME280;60223;34.854;-92.408;2023-03-03T07:42:55;98342.49;;;19.73;40.43
37710;BME280;60223;34.854;-92.408;2023-03-03T07:45:26;98363.34;;;19.41;40.54
37710;BME280;60223;34.854;-92.408;2023-03-03T07:47:47;98357.96;;;19.55;40.30
37710;BME280;60223;34.854;-92.408;2023-03-03T07:50:17;98358.27;;;19.62;40.53
37710;BME280;60223;34.854;-92.408;2023-03-03T07:52:42;98358.36;;;19.58;40.58
37710;BME280;60223;34.854;-92.408;2023-03-03T07:57:33;98394.94;;;19.65;40.48
37710;BME280;60223;34.854;-92.408;2023-03-03T07:59:59;98390.46;;;19.62;40.49
37710;BME280;60223;34.854;-92.408;2023-03-03T08:02:30;98375.06;;;19.72;40.29
37710;BME280;60223;34.854;-92.408;2023-03-03T08:04:49;98375.86;;;19.69;40.25
37710;BME280;60223;34.854;-92.408;2023-03-03T08:07:15;98381.66;;;19.35;40.40
37710;BME280;60223;34.854;-92.408;2023-03-03T08:09:43;98395.16;;;19.34;40.47
37710;BME280;60223;34.854;-92.408;2023-03-03T08:12:14;98413.57;;;19.54;40.45
37710;BME280;60223;34.854;-92.408;2023-03-03T08:14:33;98418.96;;;19.44;40.55
37710;BME280;60223;34.854;-92.408;2023-03-03T08:16:55;98417.57;;;19.55;40.37
37710;BME280;60223;34.854;-92.408;2023-03-03T08:19:21;98401.97;;;19.19;40.49
37710;BME280;60223;34.854;-92.408;2023-03-03T08:21:46;98413.09;;;19.38;40.56
37710;BME280;60223;34.854;-92.408;2023-03-03T08:24:12;98430.21;;;19.53;40.30
37710;BME280;60223;34.854;-92.408;2023-03-03T08:26:37;98441.12;;;19.49;40.37
37710;BME280;60223;34.854;-92.408;2023-03-03T08:29:04;98437.78;;;19.95;40.33
37710;BME280;60223;34.854;-92.408;2023-03-03T08:31:29;98431.86;;;19.51;40.28
37710;BME280;60223;34.854;-92.408;2023-03-03T08:33:55;98436.12;;;19.54;40.26
37710;BME280;60223;34.854;-92.408;2023-03-03T08:36:19;98387.87;;;19.30;40.20
37710;BME280;60223;34.854;-92.408;2023-03-03T08:38:46;98328.37;;;19.59;40.04
37710;BME280;60223;34.854;-92.408;2023-03-03T08:41:12;98331.06;;;19.52;40.10
37710;BME280;60223;34.854;-92.408;2023-03-03T08:43:38;98371.54;;;19.43;40.24
37710;BME280;60223;34.854;-92.408;2023-03-03T08:46:05;98352.35;;;19.59;40.35
37710;BME280;60223;34.854;-92.408;2023-03-03T08:48:29;98349.46;;;19.73;40.43
37710;BME280;60223;34.854;-92.408;2023-03-03T08:50:55;98330.58;;;19.28;40.38
37710;BME280;60223;34.854;-92.408;2023-03-03T08:53:19;98360.89;;;19.34;40.26
37710;BME280;60223;34.854;-92.408;2023-03-03T08:55:46;98332.67;;;19.06;40.63
37710;BME280;60223;34.854;-92.408;2023-03-03T08:58:12;98360.31;;;19.33;40.23
37710;BME280;60223;34.854;-92.408;2023-03-03T09:00:37;98396.41;;;19.29;40.32
37710;BME280;60223;34.854;-92.408;2023-03-03T09:03:03;98330.30;;;19.18;40.36
37710;BME280;60223;34.854;-92.408;2023-03-03T09:05:29;98309.68;;;19.20;40.35
37710;BME280;60223;34.854;-92.408;2023-03-03T09:07:55;98309.37;;;19.04;40.46
37710;BME280;60223;34.854;-92.408;2023-03-03T09:10:22;98268.36;;;19.60;40.40
37710;BME280;60223;34.854;-92.408;2023-03-03T09:12:47;98231.23;;;19.20;40.26
37710;BME280;60223;34.854;-92.408;2023-03-03T09:15:20;98222.17;;;19.65;40.21
37710;BME280;60223;34.854;-92.408;2023-03-03T09:17:38;98199.89;;;19.44;40.17
37710;BME280;60223;34.854;-92.408;2023-03-03T09:22:31;98192.04;;;19.58;40.21
37710;BME280;60223;34.854;-92.408;2023-03-03T09:24:56;98178.07;;;19.24;40.01
37710;BME280;60223;34.854;-92.408;2023-03-03T09:27:24;98176.20;;;18.85;40.11
37710;BME280;60223;34.854;-92.408;2023-03-03T09:29:46;98188.39;;;18.92;40.35
37710;BME280;60223;34.854;-92.408;2023-03-03T09:32:20;98208.14;;;19.23;40.31
37710;BME280;60223;34.854;-92.408;2023-03-03T09:34:42;98188.50;;;19.05;40.20
37710;BME280;60223;34.854;-92.408;2023-03-03T09:39:29;98186.42;;;19.05;40.20
37710;BME280;60223;34.854;-92.408;2023-03-03T09:42:10;98157.51;;;19.40;40.32
37710;BME280;60223;34.854;-92.408;2023-03-03T09:44:29;98174.50;;;19.20;40.17
37710;BME280;60223;34.854;-92.408;2023-03-03T09:46:50;98188.22;;;18.94;40.27
37710;BME280;60223;34.854;-92.408;2023-03-03T09:49:20;98150.52;;;18.83;40.23
37710;BME280;60223;34.854;-92.408;2023-03-03T09:51:47;98149.48;;;19.00;40.37
37710;BME280;60223;34.854;-92.408;2023-03-03T09:54:13;98134.69;;;18.69;40.44
37710;BME280;60223;34.854;-92.408;2023-03-03T09:56:34;98155.03;;;19.35;40.21
37710;BME280;60223;34.854;-92.408;2023-03-03T09:59:08;98184.79;;;19.22;40.45
37710;BME280;60223;34.854;-92.408;2023-03-03T10:01:32;98234.48;;;18.54;40.70
37710;BME280;60223;34.854;-92.408;2023-03-03T10:04:04;98188.71;;;19.04;40.30
37710;BME280;60223;34.854;-92.408;2023-03-03T10:06:19;98157.82;;;19.32;40.17
37710;BME280;60223;34.854;-92.408;2023-03-03T10:08:50;98191.17;;;19.14;40.08
37710;BME280;60223;34.854;-92.408;2023-03-03T10:11:09;98166.35;;;19.15;40.00
37710;BME280;60223;34.854;-92.408;2023-03-03T10:13:36;98125.67;;;19.56;39.71
37710;BME280;60223;34.854;-92.408;2023-03-03T10:18:28;98151.81;;;19.23;40.16
37710;BME280;60223;34.854;-92.408;2023-03-03T10:20:57;98136.61;;;19.00;40.14
37710;BME280;60223;34.854;-92.408;2023-03-03T10:23:19;98120.41;;;18.90;39.92
37710;BME280;60223;34.854;-92.408;2023-03-03T10:25:41;98129.38;;;19.15;40.17
37710;BME280;60223;34.854;-92.408;2023-03-03T10:30:36;98095.53;;;18.96;40.07
37710;BME280;60223;34.854;-92.408;2023-03-03T10:32:56;98107.31;;;19.00;39.93
37710;BME280;60223;34.854;-92.408;2023-03-03T10:35:24;98121.93;;;19.04;39.93
37710;BME280;60223;34.854;-92.408;2023-03-03T10:37:56;98136.38;;;19.00;39.95
37710;BME280;60223;34.854;-92.408;2023-03-03T10:40:20;98137.88;;;18.66;40.06
37710;BME280;60223;34.854;-92.408;2023-03-03T10:47:42;98068.45;;;19.00;40.19
37710;BME280;60223;34.854;-92.408;2023-03-03T10:50:02;98056.64;;;18.83;40.00
37710;BME280;60223;34.854;-92.408;2023-03-03T10:52:29;98113.29;;;19.18;39.92
37710;BME280;60223;34.854;-92.408;2023-03-03T10:54:53;98149.56;;;19.16;39.64
37710;BME280;60223;34.854;-92.408;2023-03-03T10:57:15;98175.96;;;19.17;39.63
37710;BME280;60223;34.854;-92.408;2023-03-03T10:59:52;98201.97;;;18.80;40.06
37710;BME280;60223;34.854;-92.408;2023-03-03T11:02:07;98263.65;;;18.67;40.22
37710;BME280;60223;34.854;-92.408;2023-03-03T11:04:41;98296.01;;;19.06;39.99
37710;BME280;60223;34.854;-92.408;2023-03-03T11:06:58;98284.78;;;19.06;39.99
37710;BME280;60223;34.854;-92.408;2023-03-03T11:09:32;98296.88;;;19.02;40.08
37710;BME280;60223;34.854;-92.408;2023-03-03T11:11:51;98299.99;;;19.06;39.93
37710;BME280;60223;34.854;-92.408;2023-03-03T11:14:16;98283.36;;;18.64;40.15
37710;BME280;60223;34.854;-92.408;2023-03-03T11:16:48;98307.06;;;18.35;40.17
37710;BME280;60223;34.854;-92.408;2023-03-03T11:19:11;98259.09;;;18.94;40.06
37710;BME280;60223;34.854;-92.408;2023-03-03T11:21:30;98142.46;;;18.98;40.16
37710;BME280;60223;34.854;-92.408;2023-03-03T11:24:10;98143.87;;;18.83;40.03
37710;BME280;60223;34.854;-92.408;2023-03-03T11:26:29;98159.76;;;19.05;39.79
37710;BME280;60223;34.854;-92.408;2023-03-03T11:28:54;98162.78;;;18.44;40.17
37710;BME280;60223;34.854;-92.408;2023-03-03T11:31:16;98173.72;;;18.52;40.13
37710;BME280;60223;34.854;-92.408;2023-03-03T11:33:40;98173.01;;;18.70;40.22
37710;BME280;60223;34.854;-92.408;2023-03-03T11:36:10;98183.26;;;18.33;40.41
37710;BME280;60223;34.854;-92.408;2023-03-03T11:38:37;98133.03;;;18.53;40.40
37710;BME280;60223;34.854;-92.408;2023-03-03T11:40:58;98152.07;;;18.53;40.41
37710;BME280;60223;34.854;-92.408;2023-03-03T11:43:23;98188.69;;;18.59;40.27
37710;BME280;60223;34.854;-92.408;2023-03-03T11:45:49;98227.43;;;19.55;39.06
37710;BME280;60223;34.854;-92.408;2023-03-03T11:48:13;98283.38;;;19.47;39.26
37710;BME280;60223;34.854;-92.408;2023-03-03T11:50:44;98295.11;;;17.73;41.18
37710;BME280;60223;34.854;-92.408;2023-03-03T11:53:15;98316.89;;;18.06;41.20
37710;BME280;60223;34.854;-92.408;2023-03-03T11:55:32;98321.99;;;18.49;41.13
37710;BME280;60223;34.854;-92.408;2023-03-03T11:57:57;98326.98;;;17.86;41.38
37710;BME280;60223;34.854;-92.408;2023-03-03T12:00:25;98335.74;;;18.43;40.84
37710;BME280;60223;34.854;-92.408;2023-03-03T12:02:56;98338.89;;;18.88;40.21
37710;BME280;60223;34.854;-92.408;2023-03-03T12:05:17;98331.09;;;19.13;40.07
37710;BME280;60223;34.854;-92.408;2023-03-03T12:07:44;98225.13;;;19.48;39.50
37710;BME280;60223;34.854;-92.408;2023-03-03T12:10:15;98057.60;;;19.16;39.95
37710;BME280;60223;34.854;-92.408;2023-03-03T12:12:32;98049.36;;;19.37;39.68
37710;BME280;60223;34.854;-92.408;2023-03-03T12:15:04;98012.59;;;18.94;39.62
37710;BME280;60223;34.854;-92.408;2023-03-03T12:17:34;97967.74;;;19.66;39.13
37710;BME280;60223;34.854;-92.408;2023-03-03T12:19:52;97863.86;;;19.49;39.25
37710;BME280;60223;34.854;-92.408;2023-03-03T12:22:22;97740.80;;;19.43;39.27
37710;BME280;60223;34.854;-92.408;2023-03-03T12:24:48;97731.88;;;19.63;39.42
37710;BME280;60223;34.854;-92.408;2023-03-03T12:27:13;97705.22;;;19.44;39.43
37710;BME280;60223;34.854;-92.408;2023-03-03T12:29:32;97623.61;;;19.56;38.95
37710;BME280;60223;34.854;-92.408;2023-03-03T12:32:00;97578.95;;;19.59;38.98
37710;BME280;60223;34.854;-92.408;2023-03-03T12:34:25;97677.76;;;19.43;39.23
37710;BME280;60223;34.854;-92.408;2023-03-03T12:36:57;97783.04;;;19.74;39.51
37710;BME280;60223;34.854;-92.408;2023-03-03T12:39:17;97797.90;;;19.45;39.56
37710;BME280;60223;34.854;-92.408;2023-03-03T12:41:39;97826.45;;;19.10;39.78
37710;BME280;60223;34.854;-92.408;2023-03-03T12:44:07;97883.14;;;19.25;39.88
37710;BME280;60223;34.854;-92.408;2023-03-03T12:46:39;97943.09;;;19.91;39.30
37710;BME280;60223;34.854;-92.408;2023-03-03T12:48:54;97942.52;;;19.81;39.11
37710;BME280;60223;34.854;-92.408;2023-03-03T12:51:34;97946.67;;;19.73;39.13
37710;BME280;60223;34.854;-92.408;2023-03-03T12:54:03;97942.84;;;19.71;39.24